Noatak Airport Noatak US
ICAO: PAWN
IATA:
Category: Medium
Scheduled Services:

Elevation: 88 ft
TransAlt. 18000 ft.

Airport Communications:
AWOS 3:135.75
ANCHORAGE CNTR:119.2
KOTZEBUE RDO:122.4
CTAF/UNICOM:122.8

PAWN Zoom In..

If Map Doesn't Load, Click Here

Runways:

(A) RW 01 length 3992 ft width 60 ft
---- / hdg 7

(B) RW 19 length 3992 ft width 60 ft
---- / hdg 187

Location; PAWN
Day. 23 / Time. 07.56 Zulu
* Altimeter: 29.60
* Temperature: 01° c. 33.8°f.
* Wind from: 010° Speed 07 kn.
Dewpoint: -02° c.
Visibility: 10 Statute Miles.
Clouds: Clear (automated report).

PAWN 230756Z AUTO 01007KT 10SM CLR 01/M02 A2960 RMK AO2 SLP038 T00111017 401061011 FZRANO


Wind From 010°
Speed 07 kn.

 
 
jpsmedia.com for Web Design worldairports.se 2018   terms of use